Time,TemperatureF,DewpointF,PressureIn,WindDirection,WindDirectionDegrees,WindSpeedMPH,WindSpeedGustMPH,Humidity,HourlyPrecipIn,Conditions,Clouds,dailyrainin,SoftwareType,DateUTC
2013-05-19 00:00:00,68.2,67.3,30.06,NNW,341,0.0,0.0,97,0.00,,BKN120,0.54,VWS V14.01,2013-05-19 04:00:00,
2013-05-19 00:03:00,68.2,67.3,30.06,NNW,342,0.0,0.0,97,0.00,,OVC090,0.00,VWS V14.01,2013-05-19 04:03:00,
2013-05-19 00:08:00,68.2,67.3,30.06,NNW,341,0.0,0.0,97,0.00,,OVC090,0.00,VWS V14.01,2013-05-19 04:08:00,
2013-05-19 00:15:00,68.2,67.3,30.07,NNW,342,0.0,0.0,97,0.00,,OVC090,0.00,VWS V14.01,2013-05-19 04:15:00,
2013-05-19 00:18:00,68.2,67.3,30.06,NNW,342,0.0,0.0,97,0.00,,OVC090,0.00,VWS V14.01,2013-05-19 04:18:00,
2013-05-19 00:27:00,68.2,67.3,30.06,NNW,341,0.0,0.0,97,0.00,,OVC090,0.00,VWS V14.01,2013-05-19 04:27:00,
2013-05-19 00:30:00,68.1,67.2,30.06,NNW,341,0.0,0.0,97,0.00,,BKN090,0.00,VWS V14.01,2013-05-19 04:30:00,
2013-05-19 00:37:00,68.1,67.2,30.06,NNW,341,0.0,0.0,97,0.00,,OVC090,0.00,VWS V14.01,2013-05-19 04:37:00,
2013-05-19 00:45:00,68.1,67.2,30.06,NNW,341,0.0,0.0,97,0.00,,OVC090,0.00,VWS V14.01,2013-05-19 04:45:00,
2013-05-19 00:52:00,68.0,67.4,30.06,NNW,342,0.0,0.0,98,0.00,,OVC090,0.00,VWS V14.01,2013-05-19 04:52:00,
2013-05-19 01:00:00,67.9,67.3,30.06,NNW,341,0.0,0.0,98,0.00,,OVC090,0.00,VWS V14.01,2013-05-19 05:00:00,
2013-05-19 01:06:00,67.9,67.3,30.06,NNW,342,0.0,0.0,98,0.00,,OVC090,0.00,VWS V14.01,2013-05-19 05:06:00,
2013-05-19 01:15:00,67.8,67.2,30.06,NNW,342,0.0,0.0,98,0.00,,OVC090,0.00,VWS V14.01,2013-05-19 05:15:00,
2013-05-19 01:20:00,67.8,67.2,30.06,NNW,341,0.0,0.0,98,0.00,,OVC090,0.00,VWS V14.01,2013-05-19 05:20:00,
2013-05-19 01:30:00,67.8,67.2,30.05,NNW,341,0.0,0.0,98,0.00,,OVC090,0.00,VWS V14.01,2013-05-19 05:30:00,
2013-05-19 01:40:00,67.9,67.3,30.05,NNW,341,0.0,0.0,98,0.00,,OVC090,0.00,VWS V14.01,2013-05-19 05:40:00,
2013-05-19 01:45:00,68.0,67.4,30.05,NNW,342,0.0,0.0,98,0.00,,OVC090,0.00,VWS V14.01,2013-05-19 05:45:00,
2013-05-19 01:54:00,68.0,67.4,30.05,NNW,341,0.0,0.0,98,0.00,,OVC090,0.00,VWS V14.01,2013-05-19 05:54:00,
2013-05-19 02:00:00,68.1,67.5,30.05,NNW,342,0.0,0.0,98,0.00,,OVC090,0.00,VWS V14.01,2013-05-19 06:00:00,
2013-05-19 02:09:00,68.1,67.5,30.04,NNW,342,0.0,0.0,98,0.00,,,0.00,VWS V14.01,2013-05-19 06:09:00,
2013-05-19 02:15:00,68.1,67.5,30.04,NNW,341,0.0,0.0,98,0.00,,,0.00,VWS V14.01,2013-05-19 06:15:00,
2013-05-19 02:23:00,68.0,67.4,30.04,NNW,342,0.0,0.0,98,0.00,,,0.00,VWS V14.01,2013-05-19 06:23:00,
2013-05-19 02:30:00,68.0,67.4,30.04,NNW,342,0.0,0.0,98,0.00,,,0.00,VWS V14.01,2013-05-19 06:30:00,
2013-05-19 02:38:00,68.0,67.4,30.04,NNW,342,0.0,0.0,98,0.00,,,0.00,VWS V14.01,2013-05-19 06:38:00,
2013-05-19 02:45:00,68.0,67.4,30.04,NNW,342,0.0,0.0,98,0.00,,,0.00,VWS V14.01,2013-05-19 06:45:00,
2013-05-19 02:52:00,67.9,67.3,30.04,NNW,341,0.0,0.0,98,0.00,,,0.00,VWS V14.01,2013-05-19 06:52:00,
2013-05-19 03:00:00,67.9,67.3,30.04,NNW,342,0.0,0.0,98,0.00,,,0.00,VWS V14.01,2013-05-19 07:00:00,
2013-05-19 03:07:00,67.9,67.3,30.04,NNW,342,0.0,0.0,98,0.00,,,0.00,VWS V14.01,2013-05-19 07:07:00,
2013-05-19 03:15:00,67.9,67.3,30.04,NNW,342,0.0,0.0,98,0.00,,,0.00,VWS V14.01,2013-05-19 07:15:00,
2013-05-19 03:21:00,67.8,67.2,30.03,NNW,342,0.0,0.0,98,0.00,,,0.00,VWS V14.01,2013-05-19 07:21:00,
2013-05-19 03:30:00,67.7,67.1,30.03,NNW,341,0.0,0.0,98,0.00,,,0.00,VWS V14.01,2013-05-19 07:30:00,
2013-05-19 03:36:00,67.7,67.1,30.03,NNW,342,0.0,0.0,98,0.00,,,0.00,VWS V14.01,2013-05-19 07:36:00,
2013-05-19 03:45:00,67.6,67.0,30.03,NNW,341,0.0,0.0,98,0.00,,,0.00,VWS V14.01,2013-05-19 07:45:00,
2013-05-19 03:50:00,67.6,67.0,30.03,NNW,341,0.0,0.0,98,0.00,,,0.00,VWS V14.01,2013-05-19 07:50:00,
2013-05-19 04:00:00,67.7,67.1,30.03,NNW,341,0.0,0.0,98,0.00,,,0.00,VWS V14.01,2013-05-19 08:00:00,
2013-05-19 04:09:00,67.8,67.2,30.03,NNW,342,0.0,0.0,98,0.00,,,0.00,VWS V14.01,2013-05-19 08:09:00,
2013-05-19 04:15:00,67.9,67.3,30.03,NNW,342,0.0,0.0,98,0.00,,,0.00,VWS V14.01,2013-05-19 08:15:00,
2013-05-19 04:24:00,68.1,67.5,30.03,NNW,342,0.0,0.0,98,0.00,,,0.00,VWS V14.01,2013-05-19 08:24:00,
2013-05-19 04:30:00,68.2,67.6,30.03,NNW,342,0.0,0.0,98,0.00,,,0.00,VWS V14.01,2013-05-19 08:30:00,
2013-05-19 04:38:00,68.3,67.7,30.03,NNW,342,0.0,0.0,98,0.00,,,0.00,VWS V14.01,2013-05-19 08:38:00,
2013-05-19 04:45:00,68.2,67.6,30.03,NNW,341,0.0,0.0,98,0.00,,,0.00,VWS V14.01,2013-05-19 08:45:00,
2013-05-19 04:53:00,68.1,67.5,30.03,NNW,342,0.0,0.0,98,0.00,,,0.00,VWS V14.01,2013-05-19 08:53:00,
2013-05-19 05:00:00,68.1,67.5,30.04,NNW,341,0.0,0.0,98,0.00,,,0.00,VWS V14.01,2013-05-19 09:00:00,
2013-05-19 05:07:00,68.0,67.4,30.04,NNW,341,0.0,0.0,98,0.00,,-RA,0.00,VWS V14.01,2013-05-19 09:07:00,
2013-05-19 05:15:00,68.1,67.5,30.04,NNW,342,0.0,0.0,98,0.00,,-RA,0.00,VWS V14.01,2013-05-19 09:15:00,
2013-05-19 05:22:00,68.2,67.6,30.04,NNW,341,0.0,0.0,98,0.00,,-RA,0.00,VWS V14.01,2013-05-19 09:22:00,
2013-05-19 05:30:00,68.3,67.7,30.04,NNW,342,0.0,0.0,98,0.00,,-RA,0.00,VWS V14.01,2013-05-19 09:30:00,
2013-05-19 05:36:00,68.4,67.8,30.04,NNW,342,0.0,0.0,98,0.00,,-RA,0.00,VWS V14.01,2013-05-19 09:36:00,
2013-05-19 05:45:00,68.5,67.9,30.04,NNW,342,0.0,0.0,98,0.00,,-RA,0.00,VWS V14.01,2013-05-19 09:45:00,
2013-05-19 05:51:00,68.6,68.0,30.04,NNW,342,0.0,0.0,98,0.00,,-RA,0.00,VWS V14.01,2013-05-19 09:51:00,
2013-05-19 06:00:00,68.8,68.2,30.05,NNW,341,0.0,0.0,98,0.00,,-RA,0.00,VWS V14.01,2013-05-19 10:00:00,
2013-05-19 06:05:00,68.8,68.2,30.05,NNW,341,0.0,0.0,98,0.00,,OVC080,0.00,VWS V14.01,2013-05-19 10:05:00,
2013-05-19 06:15:00,68.8,68.2,30.05,NNW,342,0.0,0.0,98,0.00,,OVC080,0.00,VWS V14.01,2013-05-19 10:15:00,
2013-05-19 06:25:00,68.9,68.3,30.05,NNW,341,0.0,0.0,98,0.00,,OVC080,0.00,VWS V14.01,2013-05-19 10:25:00,
2013-05-19 06:30:00,68.9,68.3,30.06,NNW,342,0.0,0.0,98,0.00,,OVC080,0.00,VWS V14.01,2013-05-19 10:30:00,
2013-05-19 06:39:00,69.0,68.4,30.06,NNW,341,0.0,0.0,98,0.00,,OVC080,0.00,VWS V14.01,2013-05-19 10:39:00,
2013-05-19 06:45:00,69.1,68.5,30.06,NNW,342,0.0,0.0,98,0.00,,OVC080,0.00,VWS V14.01,2013-05-19 10:45:00,
2013-05-19 06:54:00,69.3,68.7,30.06,NNW,342,0.0,0.0,98,0.00,,OVC080,0.00,VWS V14.01,2013-05-19 10:54:00,
2013-05-19 07:00:00,69.4,68.8,30.07,NNW,342,0.0,0.0,98,0.00,,OVC080,0.00,VWS V14.01,2013-05-19 11:00:00,
2013-05-19 07:08:00,69.6,69.0,30.07,NNW,342,0.0,0.0,98,0.00,,,0.00,VWS V14.01,2013-05-19 11:08:00,
2013-05-19 07:15:00,69.7,69.1,30.07,NNW,341,0.0,0.0,98,0.00,,,0.00,VWS V14.01,2013-05-19 11:15:00,
2013-05-19 07:23:00,69.7,69.1,30.07,NNW,342,0.0,0.0,98,0.00,,,0.00,VWS V14.01,2013-05-19 11:23:00,
2013-05-19 07:30:00,69.7,69.1,30.07,NNW,342,0.0,0.0,98,0.00,,,0.00,VWS V14.01,2013-05-19 11:30:00,
2013-05-19 07:37:00,69.7,69.1,30.08,NNW,342,0.0,0.0,98,0.00,,,0.00,VWS V14.01,2013-05-19 11:37:00,
2013-05-19 07:45:00,69.9,69.3,30.08,NNW,341,0.0,0.0,98,0.00,,,0.00,VWS V14.01,2013-05-19 11:45:00,
2013-05-19 07:51:00,69.9,69.3,30.08,NNW,342,0.0,0.0,98,0.00,,,0.00,VWS V14.01,2013-05-19 11:51:00,
2013-05-19 08:00:00,69.9,69.3,30.08,NNW,342,0.0,0.0,98,0.01,,,0.01,VWS V14.01,2013-05-19 12:00:00,
2013-05-19 08:06:00,70.0,69.4,30.08,NNW,342,0.0,0.0,98,0.01,,,0.01,VWS V14.01,2013-05-19 12:06:00,
2013-05-19 08:15:00,70.0,69.4,30.08,NNW,342,0.0,0.0,98,0.01,,,0.01,VWS V14.01,2013-05-19 12:15:00,
2013-05-19 08:20:00,69.9,69.3,30.09,NNW,342,0.0,0.0,98,0.02,,,0.02,VWS V14.01,2013-05-19 12:20:00,
2013-05-19 08:30:00,70.0,69.4,30.08,NNW,341,0.0,0.0,98,0.02,,,0.02,VWS V14.01,2013-05-19 12:30:00,
2013-05-19 08:40:00,70.0,69.4,30.09,NNW,341,0.0,0.0,98,0.03,,,0.03,VWS V14.01,2013-05-19 12:40:00,
2013-05-19 08:45:00,70.1,69.5,30.09,NNW,341,0.0,0.0,98,0.03,,,0.03,VWS V14.01,2013-05-19 12:45:00,
2013-05-19 08:54:00,70.2,69.6,30.08,NNW,341,0.0,0.0,98,0.03,,,0.03,VWS V14.01,2013-05-19 12:54:00,
2013-05-19 09:00:00,70.1,69.5,30.08,NNW,341,0.0,0.0,98,0.03,,,0.03,VWS V14.01,2013-05-19 13:00:00,
2013-05-19 09:09:00,69.9,69.3,30.08,NNW,342,0.0,0.0,98,0.02,,BKN080,0.03,VWS V14.01,2013-05-19 13:09:00,
2013-05-19 09:15:00,70.0,69.4,30.08,NNW,342,0.0,0.0,98,0.02,,BKN080,0.03,VWS V14.01,2013-05-19 13:15:00,
2013-05-19 09:23:00,70.3,69.7,30.08,NNW,342,0.0,0.0,98,0.02,,BKN080,0.03,VWS V14.01,2013-05-19 13:23:00,
2013-05-19 09:30:00,70.6,70.0,30.08,NNW,341,0.0,0.0,98,0.02,,BKN080,0.03,VWS V14.01,2013-05-19 13:30:00,
2013-05-19 09:38:00,70.8,70.2,30.08,NNW,341,0.0,0.0,98,0.01,,FEW006,0.03,VWS V14.01,2013-05-19 13:38:00,
2013-05-19 09:45:00,71.2,70.9,30.08,NNW,341,0.0,0.0,99,0.01,,FEW006,0.03,VWS V14.01,2013-05-19 13:45:00,
2013-05-19 09:52:00,71.3,71.0,30.08,NNW,341,0.0,1.0,99,0.00,,FEW006,0.03,VWS V14.01,2013-05-19 13:52:00,
2013-05-19 10:00:00,72.1,71.8,30.08,NNW,342,0.0,1.0,99,0.00,,FEW006,0.03,VWS V14.01,2013-05-19 14:00:00,
2013-05-19 10:07:00,72.2,71.6,30.08,NNW,341,0.0,0.0,98,0.00,,BKN011,0.03,VWS V14.01,2013-05-19 14:07:00,
2013-05-19 10:15:00,73.1,72.8,30.08,NNW,342,0.0,1.0,99,0.00,,BKN011,0.03,VWS V14.01,2013-05-19 14:15:00,
2013-05-19 10:21:00,73.2,72.9,30.08,NNW,341,0.0,0.0,99,0.00,,BKN011,0.03,VWS V14.01,2013-05-19 14:21:00,
2013-05-19 10:30:00,73.7,73.1,30.07,NNW,342,0.0,0.0,98,0.00,,BKN011,0.03,VWS V14.01,2013-05-19 14:30:00,
2013-05-19 10:36:00,74.2,73.6,30.08,NNW,342,0.0,2.0,98,0.00,,OVC046,0.03,VWS V14.01,2013-05-19 14:36:00,
2013-05-19 10:45:00,74.4,73.8,30.08,NNW,342,0.0,2.0,98,0.00,,OVC046,0.03,VWS V14.01,2013-05-19 14:45:00,
2013-05-19 10:50:00,74.8,74.2,30.07,NNW,342,0.0,0.0,98,0.00,,OVC046,0.03,VWS V14.01,2013-05-19 14:50:00,
2013-05-19 11:00:00,74.8,73.9,30.07,NNW,341,0.0,1.0,97,0.00,,OVC046,0.03,VWS V14.01,2013-05-19 15:00:00,
2013-05-19 11:09:00,73.5,72.3,30.07,NNW,342,0.0,1.0,96,0.00,,OVC070,0.03,VWS V14.01,2013-05-19 15:09:00,
2013-05-19 11:15:00,73.0,71.8,30.07,NNW,342,0.0,1.0,96,0.00,,OVC070,0.03,VWS V14.01,2013-05-19 15:15:00,
2013-05-19 11:24:00,72.9,71.7,30.07,NNW,341,0.0,0.0,96,0.00,,OVC070,0.03,VWS V14.01,2013-05-19 15:24:00,
2013-05-19 11:30:00,72.9,71.7,30.07,NNW,342,0.0,1.0,96,0.00,,OVC070,0.03,VWS V14.01,2013-05-19 15:30:00,
2013-05-19 11:38:00,73.2,72.0,30.07,NNW,342,0.0,0.0,96,0.00,,OVC070,0.03,VWS V14.01,2013-05-19 15:38:00,
2013-05-19 11:45:00,73.5,72.3,30.06,NNW,342,0.0,0.0,96,0.00,,OVC070,0.03,VWS V14.01,2013-05-19 15:45:00,
2013-05-19 11:53:00,74.2,73.0,30.06,NNW,342,0.0,0.0,96,0.00,,OVC070,0.03,VWS V14.01,2013-05-19 15:53:00,
2013-05-19 12:00:00,75.1,73.9,30.06,NNW,342,0.0,0.0,96,0.00,,OVC070,0.03,VWS V14.01,2013-05-19 16:00:00,
2013-05-19 12:07:00,76.3,74.4,30.06,NNW,341,0.0,0.0,94,0.00,,BKN065,0.03,VWS V14.01,2013-05-19 16:07:00,
2013-05-19 12:15:00,77.3,74.8,30.05,NNW,342,0.0,0.0,92,0.00,,BKN065,0.03,VWS V14.01,2013-05-19 16:15:00,
2013-05-19 12:22:00,78.4,74.9,30.05,NNW,341,0.0,1.0,89,0.01,,BKN065,0.04,VWS V14.01,2013-05-19 16:22:00,
2013-05-19 12:30:00,79.4,75.5,30.05,NNW,341,0.0,2.0,88,0.01,,BKN065,0.04,VWS V14.01,2013-05-19 16:30:00,
2013-05-19 12:36:00,79.8,74.5,30.04,NNW,341,0.0,0.0,84,0.01,,BKN065,0.04,VWS V14.01,2013-05-19 16:36:00,
2013-05-19 12:45:00,79.4,74.2,30.04,NNW,342,0.0,2.0,84,0.01,,BKN065,0.04,VWS V14.01,2013-05-19 16:45:00,
2013-05-19 12:51:00,79.1,73.5,30.03,NNW,341,0.0,1.0,83,0.01,,BKN065,0.04,VWS V14.01,2013-05-19 16:51:00,
2013-05-19 13:00:00,78.8,73.2,30.03,NNW,342,0.0,1.0,83,0.01,,BKN065,0.04,VWS V14.01,2013-05-19 17:00:00,
2013-05-19 13:05:00,79.2,73.6,30.02,NNW,342,0.0,0.0,83,0.01,,BKN036,0.04,VWS V14.01,2013-05-19 17:05:00,
2013-05-19 13:15:00,80.2,73.5,30.02,NNW,342,0.0,1.0,80,0.01,,BKN036,0.04,VWS V14.01,2013-05-19 17:15:00,
2013-05-19 13:25:00,80.8,73.7,30.02,North,360,0.0,2.0,79,0.01,,BKN036,0.04,VWS V14.01,2013-05-19 17:25:00,
2013-05-19 13:30:00,81.1,72.8,30.02,WSW,245,0.0,2.0,76,0.01,,BKN036,0.04,VWS V14.01,2013-05-19 17:30:00,
2013-05-19 13:39:00,82.1,74.2,30.01,WSW,245,0.0,2.0,77,0.00,,BKN036,0.04,VWS V14.01,2013-05-19 17:39:00,
2013-05-19 13:45:00,82.7,73.6,30.01,WSW,245,0.0,2.0,74,0.00,,BKN036,0.04,VWS V14.01,2013-05-19 17:45:00,
2013-05-19 13:54:00,83.2,72.8,30.01,WSW,245,0.0,0.0,71,0.00,,BKN036,0.04,VWS V14.01,2013-05-19 17:54:00,
2013-05-19 14:00:00,81.8,71.9,30.01,South,188,0.0,4.0,72,0.00,,BKN036,0.04,VWS V14.01,2013-05-19 18:00:00,
2013-05-19 14:15:00,76.5,69.9,30.01,South,179,0.0,1.0,80,0.00,,BKN090,0.04,VWS V14.01,2013-05-19 18:15:00,
2013-05-19 14:21:00,75.3,69.4,30.02,South,176,0.0,2.0,82,0.00,,BKN090,0.04,VWS V14.01,2013-05-19 18:21:00,
2013-05-19 14:30:00,73.6,68.8,30.03,South,177,0.0,2.0,85,0.00,,BKN090,0.04,VWS V14.01,2013-05-19 18:30:00,
2013-05-19 14:36:00,72.9,68.8,30.03,South,176,0.0,2.0,87,0.00,,BKN090,0.04,VWS V14.01,2013-05-19 18:36:00,
2013-05-19 14:45:00,71.9,68.5,30.03,South,177,0.0,2.0,89,0.00,,BKN090,0.04,VWS V14.01,2013-05-19 18:45:00,
2013-05-19 14:50:00,71.5,68.7,30.04,South,177,0.0,1.0,91,0.01,,BKN090,0.05,VWS V14.01,2013-05-19 18:50:00,
2013-05-19 15:00:00,70.9,68.5,30.03,South,176,0.0,1.0,92,0.01,,BKN090,0.05,VWS V14.01,2013-05-19 19:00:00,
2013-05-19 15:09:00,70.5,68.4,30.02,South,177,0.0,0.0,93,0.02,,-RA,0.06,VWS V14.01,2013-05-19 19:09:00,
2013-05-19 15:15:00,70.3,68.2,30.02,South,176,0.0,1.0,93,0.02,,-RA,0.06,VWS V14.01,2013-05-19 19:15:00,
2013-05-19 15:24:00,70.1,68.3,30.01,South,176,0.0,0.0,94,0.03,,-RA,0.07,VWS V14.01,2013-05-19 19:24:00,
2013-05-19 15:30:00,70.2,68.7,30.02,South,178,0.0,0.0,95,0.05,,-RA,0.09,VWS V14.01,2013-05-19 19:30:00,
2013-05-19 15:38:00,70.5,69.0,30.01,South,177,0.0,1.0,95,0.06,, +RA,0.10,VWS V14.01,2013-05-19 19:38:00,
2013-05-19 15:45:00,70.5,69.0,30.01,South,177,0.0,1.0,95,0.06,, +RA,0.10,VWS V14.01,2013-05-19 19:45:00,
2013-05-19 15:53:00,70.4,68.9,30.01,South,177,0.0,0.0,95,0.07,, +RA,0.11,VWS V14.01,2013-05-19 19:53:00,
2013-05-19 16:00:00,70.4,69.2,30.02,South,177,0.0,0.0,96,0.07,, +RA,0.11,VWS V14.01,2013-05-19 20:00:00,
2013-05-19 16:07:00,70.3,69.1,30.03,South,176,0.0,0.0,96,0.06,,-RA,0.11,VWS V14.01,2013-05-19 20:07:00,
2013-05-19 16:15:00,70.1,68.9,30.03,South,177,0.0,0.0,96,0.06,,-RA,0.11,VWS V14.01,2013-05-19 20:15:00,
2013-05-19 16:22:00,70.0,68.8,30.03,South,176,0.0,0.0,96,0.05,,-RA,0.11,VWS V14.01,2013-05-19 20:22:00,
2013-05-19 16:30:00,70.0,68.8,30.03,South,177,0.0,0.0,96,0.05,,-RA,0.11,VWS V14.01,2013-05-19 20:30:00,
2013-05-19 16:36:00,70.0,68.8,30.03,South,176,0.0,0.0,96,0.02,,-RA,0.11,VWS V14.01,2013-05-19 20:36:00,
2013-05-19 16:45:00,70.1,68.9,30.04,South,176,0.0,0.0,96,0.04,,-RA,0.13,VWS V14.01,2013-05-19 20:45:00,
2013-05-19 16:51:00,70.1,68.9,30.03,South,176,0.0,0.0,96,0.03,,-RA,0.13,VWS V14.01,2013-05-19 20:51:00,
2013-05-19 17:00:00,70.0,68.8,30.03,South,176,0.0,0.0,96,0.03,,-RA,0.13,VWS V14.01,2013-05-19 21:00:00,
2013-05-19 17:05:00,70.0,68.8,30.03,South,177,0.0,0.0,96,0.02,,-RA,0.13,VWS V14.01,2013-05-19 21:05:00,
2013-05-19 17:15:00,70.0,68.8,30.03,South,177,0.0,0.0,96,0.02,,-RA,0.13,VWS V14.01,2013-05-19 21:15:00,
2013-05-19 17:25:00,70.0,68.8,30.03,South,177,0.0,0.0,96,0.03,,-RA,0.14,VWS V14.01,2013-05-19 21:25:00,
2013-05-19 17:30:00,70.1,69.2,30.03,South,177,0.0,0.0,97,0.03,,-RA,0.14,VWS V14.01,2013-05-19 21:30:00,
2013-05-19 17:39:00,70.1,69.2,30.03,South,177,0.0,0.0,97,0.03,,-RA,0.14,VWS V14.01,2013-05-19 21:39:00,
2013-05-19 17:45:00,70.2,69.3,30.03,South,176,0.0,0.0,97,0.03,,-RA,0.14,VWS V14.01,2013-05-19 21:45:00,
2013-05-19 17:54:00,70.3,69.4,30.02,South,177,0.0,0.0,97,0.01,,-RA,0.14,VWS V14.01,2013-05-19 21:54:00,
2013-05-19 18:00:00,70.4,69.5,30.02,South,176,0.0,0.0,97,0.01,,-RA,0.14,VWS V14.01,2013-05-19 22:00:00,
2013-05-19 18:08:00,70.7,69.8,30.03,South,177,0.0,0.0,97,0.01,,SCT037,0.14,VWS V14.01,2013-05-19 22:08:00,
2013-05-19 18:15:00,70.9,70.0,30.03,South,176,0.0,0.0,97,0.01,,SCT037,0.14,VWS V14.01,2013-05-19 22:15:00,
2013-05-19 18:23:00,70.9,70.0,30.02,South,177,0.0,0.0,97,0.01,,SCT037,0.14,VWS V14.01,2013-05-19 22:23:00,
2013-05-19 18:30:00,70.9,70.0,30.02,South,177,0.0,0.0,97,0.01,,SCT037,0.14,VWS V14.01,2013-05-19 22:30:00,
2013-05-19 18:37:00,71.0,70.1,30.02,South,176,0.0,0.0,97,0.00,,OVC085,0.14,VWS V14.01,2013-05-19 22:37:00,
2013-05-19 18:45:00,70.9,70.0,30.01,South,177,0.0,0.0,97,0.00,,OVC085,0.14,VWS V14.01,2013-05-19 22:45:00,
2013-05-19 18:51:00,70.7,69.8,30.01,South,176,0.0,0.0,97,0.00,,OVC085,0.14,VWS V14.01,2013-05-19 22:51:00,
2013-05-19 19:00:00,70.7,69.8,30.01,South,177,0.0,0.0,97,0.00,,OVC085,0.14,VWS V14.01,2013-05-19 23:00:00,
2013-05-19 19:06:00,70.6,69.7,30.01,South,177,0.0,0.0,97,0.00,,-RA,0.14,VWS V14.01,2013-05-19 23:06:00,
2013-05-19 19:15:00,70.5,69.6,30.01,South,176,0.0,0.0,97,0.00,,-RA,0.14,VWS V14.01,2013-05-19 23:15:00,
2013-05-19 19:20:00,70.5,69.6,30.01,South,177,0.0,0.0,97,0.00,,-RA,0.14,VWS V14.01,2013-05-19 23:20:00,
2013-05-19 19:30:00,70.4,69.5,30.00,South,176,0.0,0.0,97,0.00,,-RA,0.14,VWS V14.01,2013-05-19 23:30:00,
2013-05-19 19:40:00,70.5,69.6,30.00,South,177,0.0,0.0,97,0.00,,BKN007,0.14,VWS V14.01,2013-05-19 23:40:00,
2013-05-19 19:45:00,70.5,69.6,30.01,South,176,0.0,0.0,97,0.00,,BKN007,0.14,VWS V14.01,2013-05-19 23:45:00,
2013-05-19 19:54:00,70.6,69.7,30.01,South,177,0.0,0.0,97,0.00,,BKN007,0.14,VWS V14.01,2013-05-19 23:54:00,
2013-05-19 20:00:00,70.6,69.7,30.01,South,177,0.0,0.0,97,0.00,,BKN007,0.14,VWS V14.01,2013-05-20 00:00:00,
2013-05-19 20:09:00,70.7,69.8,30.01,South,177,0.0,0.0,97,0.00,,BKN120,0.14,VWS V14.01,2013-05-20 00:09:00,
2013-05-19 20:15:00,70.7,69.8,30.01,South,177,0.0,0.0,97,0.00,,BKN120,0.14,VWS V14.01,2013-05-20 00:15:00,
2013-05-19 20:23:00,70.9,70.0,30.02,South,176,0.0,0.0,97,0.00,,BKN120,0.14,VWS V14.01,2013-05-20 00:23:00,
2013-05-19 20:30:00,70.8,69.9,30.02,South,176,0.0,0.0,97,0.00,,BKN120,0.14,VWS V14.01,2013-05-20 00:30:00,
2013-05-19 20:38:00,70.8,69.9,30.02,South,176,0.0,0.0,97,0.00,,BKN120,0.14,VWS V14.01,2013-05-20 00:38:00,
2013-05-19 20:45:00,70.9,70.0,30.02,South,176,0.0,0.0,97,0.00,,BKN120,0.14,VWS V14.01,2013-05-20 00:45:00,
2013-05-19 20:52:00,70.8,69.9,30.02,South,177,0.0,0.0,97,0.00,,BKN120,0.14,VWS V14.01,2013-05-20 00:52:00,
2013-05-19 21:00:00,70.6,69.7,30.02,South,176,0.0,0.0,97,0.00,,BKN120,0.14,VWS V14.01,2013-05-20 01:00:00,
2013-05-19 21:07:00,70.5,69.6,30.02,South,177,0.0,0.0,97,0.00,,FEW070,0.14,VWS V14.01,2013-05-20 01:07:00,
2013-05-19 21:15:00,70.3,69.4,30.02,South,177,0.0,0.0,97,0.00,,FEW070,0.14,VWS V14.01,2013-05-20 01:15:00,
2013-05-19 21:21:00,70.3,69.4,30.02,South,177,0.0,0.0,97,0.00,,FEW070,0.14,VWS V14.01,2013-05-20 01:21:00,
2013-05-19 21:30:00,70.0,69.1,30.02,South,177,0.0,0.0,97,0.00,,FEW070,0.14,VWS V14.01,2013-05-20 01:30:00,
2013-05-19 21:36:00,69.9,69.0,30.03,South,176,0.0,0.0,97,0.00,,FEW070,0.14,VWS V14.01,2013-05-20 01:36:00,
2013-05-19 21:45:00,69.6,68.7,30.03,South,177,0.0,0.0,97,0.00,,FEW070,0.14,VWS V14.01,2013-05-20 01:45:00,
2013-05-19 21:50:00,69.5,68.6,30.03,South,176,0.0,0.0,97,0.00,,FEW070,0.14,VWS V14.01,2013-05-20 01:50:00,
2013-05-19 22:00:00,69.7,68.8,30.03,South,177,0.0,0.0,97,0.00,,FEW070,0.14,VWS V14.01,2013-05-20 02:00:00,
2013-05-19 22:09:00,69.9,69.3,30.03,South,176,0.0,0.0,98,0.00,,CLR,0.14,VWS V14.01,2013-05-20 02:09:00,
2013-05-19 22:15:00,69.9,69.3,30.04,South,176,0.0,0.0,98,0.00,,CLR,0.14,VWS V14.01,2013-05-20 02:15:00,
2013-05-19 22:24:00,69.9,69.3,30.03,South,177,0.0,0.0,98,0.00,,CLR,0.14,VWS V14.01,2013-05-20 02:24:00,
2013-05-19 22:30:00,69.8,69.2,30.04,South,177,0.0,0.0,98,0.00,,CLR,0.14,VWS V14.01,2013-05-20 02:30:00,
2013-05-19 22:38:00,69.6,68.7,30.04,South,177,0.0,0.0,97,0.00,,CLR,0.14,VWS V14.01,2013-05-20 02:38:00,
2013-05-19 22:45:00,69.1,68.2,30.04,South,177,0.0,0.0,97,0.00,,CLR,0.14,VWS V14.01,2013-05-20 02:45:00,
2013-05-19 22:53:00,68.8,67.9,30.04,South,177,0.0,0.0,97,0.00,,CLR,0.14,VWS V14.01,2013-05-20 02:53:00,
2013-05-19 23:00:00,68.7,67.8,30.04,South,177,0.0,0.0,97,0.00,,CLR,0.14,VWS V14.01,2013-05-20 03:00:00,
2013-05-19 23:07:00,68.6,68.0,30.04,South,176,0.0,0.0,98,0.00,,SCT065,0.14,VWS V14.01,2013-05-20 03:07:00,
2013-05-19 23:15:00,68.5,67.9,30.04,South,176,0.0,0.0,98,0.00,,SCT065,0.14,VWS V14.01,2013-05-20 03:15:00,
2013-05-19 23:22:00,68.5,67.9,30.04,South,176,0.0,0.0,98,0.00,,SCT065,0.14,VWS V14.01,2013-05-20 03:22:00,
2013-05-19 23:30:00,68.4,67.5,30.04,South,177,0.0,0.0,97,0.00,,SCT065,0.14,VWS V14.01,2013-05-20 03:30:00,
2013-05-19 23:36:00,68.3,67.4,30.04,South,176,0.0,0.0,97,0.00,,SCT065,0.14,VWS V14.01,2013-05-20 03:36:00,
2013-05-19 23:45:00,68.2,67.6,30.04,South,176,0.0,0.0,98,0.00,,SCT065,0.14,VWS V14.01,2013-05-20 03:45:00,
2013-05-19 23:51:00,68.2,67.6,30.04,South,177,0.0,0.0,98,0.00,,SCT065,0.14,VWS V14.01,2013-05-20 03:51:00,